sensor_id;sensor_type;location;lat;lon;timestamp;P1;durP1;ratioP1;P2;durP2;ratioP2
2476;SDS011;1249;51.270;6.756;2023-07-29T00:01:33;2.73;;;2.43;;
2476;SDS011;1249;51.270;6.756;2023-07-29T00:03:59;3.20;;;2.87;;
2476;SDS011;1249;51.270;6.756;2023-07-29T00:06:25;2.60;;;2.40;;
2476;SDS011;1249;51.270;6.756;2023-07-29T00:08:50;3.00;;;2.60;;
2476;SDS011;1249;51.270;6.756;2023-07-29T00:11:16;3.10;;;2.00;;
2476;SDS011;1249;51.270;6.756;2023-07-29T00:13:41;3.30;;;2.80;;
2476;SDS011;1249;51.270;6.756;2023-07-29T00:16:07;3.13;;;2.93;;
2476;SDS011;1249;51.270;6.756;2023-07-29T00:18:32;3.80;;;2.60;;
2476;SDS011;1249;51.270;6.756;2023-07-29T00:20:58;2.80;;;2.60;;
2476;SDS011;1249;51.270;6.756;2023-07-29T00:23:24;2.30;;;2.10;;
2476;SDS011;1249;51.270;6.756;2023-07-29T00:25:49;2.30;;;2.10;;
2476;SDS011;1249;51.270;6.756;2023-07-29T00:28:15;6.17;;;2.67;;
2476;SDS011;1249;51.270;6.756;2023-07-29T00:30:40;2.40;;;2.30;;
2476;SDS011;1249;51.270;6.756;2023-07-29T00:33:06;3.10;;;2.70;;
2476;SDS011;1249;51.270;6.756;2023-07-29T00:35:32;2.53;;;2.33;;
2476;SDS011;1249;51.270;6.756;2023-07-29T00:37:57;4.33;;;2.47;;
2476;SDS011;1249;51.270;6.756;2023-07-29T00:40:23;3.70;;;2.10;;
2476;SDS011;1249;51.270;6.756;2023-07-29T00:42:49;3.40;;;2.27;;
2476;SDS011;1249;51.270;6.756;2023-07-29T00:45:15;2.93;;;2.73;;
2476;SDS011;1249;51.270;6.756;2023-07-29T00:47:41;4.93;;;3.13;;
2476;SDS011;1249;51.270;6.756;2023-07-29T00:50:07;3.50;;;2.80;;
2476;SDS011;1249;51.270;6.756;2023-07-29T00:52:35;2.80;;;2.50;;
2476;SDS011;1249;51.270;6.756;2023-07-29T00:55:01;2.97;;;2.10;;
2476;SDS011;1249;51.270;6.756;2023-07-29T00:57:26;3.83;;;2.77;;
2476;SDS011;1249;51.270;6.756;2023-07-29T00:59:54;2.90;;;2.70;;
2476;SDS011;1249;51.270;6.756;2023-07-29T01:02:20;3.63;;;2.60;;
2476;SDS011;1249;51.270;6.756;2023-07-29T01:04:49;3.60;;;2.37;;
2476;SDS011;1249;51.270;6.756;2023-07-29T01:10:11;3.00;;;2.70;;
2476;SDS011;1249;51.270;6.756;2023-07-29T01:13:02;2.77;;;2.57;;
2476;SDS011;1249;51.270;6.756;2023-07-29T01:15:39;3.10;;;2.80;;
2476;SDS011;1249;51.270;6.756;2023-07-29T01:18:32;2.63;;;2.43;;
2476;SDS011;1249;51.270;6.756;2023-07-29T01:20:58;2.47;;;2.23;;
2476;SDS011;1249;51.270;6.756;2023-07-29T01:23:33;2.70;;;2.50;;
2476;SDS011;1249;51.270;6.756;2023-07-29T01:26:00;2.70;;;2.50;;
2476;SDS011;1249;51.270;6.756;2023-07-29T01:28:26;2.97;;;2.73;;
2476;SDS011;1249;51.270;6.756;2023-07-29T01:30:54;2.83;;;2.50;;
2476;SDS011;1249;51.270;6.756;2023-07-29T01:33:26;2.87;;;2.63;;
2476;SDS011;1249;51.270;6.756;2023-07-29T01:35:57;3.03;;;2.60;;
2476;SDS011;1249;51.270;6.756;2023-07-29T01:38:30;5.33;;;2.83;;
2476;SDS011;1249;51.270;6.756;2023-07-29T01:41:03;2.63;;;2.43;;
2476;SDS011;1249;51.270;6.756;2023-07-29T01:43:32;3.03;;;2.83;;
2476;SDS011;1249;51.270;6.756;2023-07-29T01:45:58;2.93;;;2.57;;
2476;SDS011;1249;51.270;6.756;2023-07-29T01:48:26;3.40;;;3.10;;
2476;SDS011;1249;51.270;6.756;2023-07-29T01:50:52;2.70;;;2.50;;
2476;SDS011;1249;51.270;6.756;2023-07-29T01:53:18;4.10;;;2.80;;
2476;SDS011;1249;51.270;6.756;2023-07-29T01:55:43;3.83;;;2.93;;
2476;SDS011;1249;51.270;6.756;2023-07-29T01:58:10;3.40;;;3.20;;
2476;SDS011;1249;51.270;6.756;2023-07-29T02:00:36;3.80;;;2.70;;
2476;SDS011;1249;51.270;6.756;2023-07-29T02:03:01;7.30;;;3.17;;
2476;SDS011;1249;51.270;6.756;2023-07-29T02:05:27;2.30;;;2.10;;
2476;SDS011;1249;51.270;6.756;2023-07-29T02:07:53;2.70;;;2.50;;
2476;SDS011;1249;51.270;6.756;2023-07-29T02:10:18;3.20;;;2.97;;
2476;SDS011;1249;51.270;6.756;2023-07-29T02:12:44;2.67;;;2.47;;
2476;SDS011;1249;51.270;6.756;2023-07-29T02:15:09;5.90;;;2.93;;
2476;SDS011;1249;51.270;6.756;2023-07-29T02:17:35;2.97;;;2.10;;
2476;SDS011;1249;51.270;6.756;2023-07-29T02:20:02;2.83;;;2.63;;
2476;SDS011;1249;51.270;6.756;2023-07-29T02:22:28;2.83;;;2.53;;
2476;SDS011;1249;51.270;6.756;2023-07-29T02:24:54;3.53;;;3.23;;
2476;SDS011;1249;51.270;6.756;2023-07-29T02:27:20;4.47;;;2.83;;
2476;SDS011;1249;51.270;6.756;2023-07-29T02:29:45;4.93;;;2.83;;
2476;SDS011;1249;51.270;6.756;2023-07-29T02:32:11;4.33;;;3.17;;
2476;SDS011;1249;51.270;6.756;2023-07-29T02:34:36;2.83;;;2.63;;
2476;SDS011;1249;51.270;6.756;2023-07-29T02:37:02;2.63;;;2.43;;
2476;SDS011;1249;51.270;6.756;2023-07-29T02:39:28;4.60;;;2.80;;
2476;SDS011;1249;51.270;6.756;2023-07-29T02:41:53;2.77;;;2.57;;
2476;SDS011;1249;51.270;6.756;2023-07-29T02:44:20;2.53;;;2.43;;
2476;SDS011;1249;51.270;6.756;2023-07-29T02:46:46;4.03;;;2.70;;
2476;SDS011;1249;51.270;6.756;2023-07-29T02:49:11;5.20;;;2.93;;
2476;SDS011;1249;51.270;6.756;2023-07-29T02:51:37;3.70;;;2.80;;
2476;SDS011;1249;51.270;6.756;2023-07-29T02:54:02;6.03;;;2.80;;
2476;SDS011;1249;51.270;6.756;2023-07-29T02:56:28;3.80;;;2.60;;
2476;SDS011;1249;51.270;6.756;2023-07-29T02:58:55;2.67;;;2.47;;
2476;SDS011;1249;51.270;6.756;2023-07-29T03:01:22;3.43;;;2.37;;
2476;SDS011;1249;51.270;6.756;2023-07-29T03:03:50;3.63;;;2.40;;
2476;SDS011;1249;51.270;6.756;2023-07-29T03:06:16;2.83;;;2.40;;
2476;SDS011;1249;51.270;6.756;2023-07-29T03:08:41;2.67;;;2.30;;
2476;SDS011;1249;51.270;6.756;2023-07-29T03:11:08;2.70;;;2.50;;
2476;SDS011;1249;51.270;6.756;2023-07-29T03:13:35;3.20;;;2.97;;
2476;SDS011;1249;51.270;6.756;2023-07-29T03:16:04;5.10;;;2.47;;
2476;SDS011;1249;51.270;6.756;2023-07-29T03:18:34;2.70;;;2.50;;
2476;SDS011;1249;51.270;6.756;2023-07-29T03:21:00;2.73;;;2.63;;
2476;SDS011;1249;51.270;6.756;2023-07-29T03:23:25;2.50;;;2.30;;
2476;SDS011;1249;51.270;6.756;2023-07-29T03:25:52;2.70;;;2.50;;
2476;SDS011;1249;51.270;6.756;2023-07-29T03:28:22;4.37;;;3.93;;
2476;SDS011;1249;51.270;6.756;2023-07-29T03:30:52;3.20;;;2.50;;
2476;SDS011;1249;51.270;6.756;2023-07-29T03:33:18;2.47;;;2.27;;
2476;SDS011;1249;51.270;6.756;2023-07-29T03:35:44;3.40;;;2.30;;
2476;SDS011;1249;51.270;6.756;2023-07-29T03:38:10;2.17;;;2.07;;
2476;SDS011;1249;51.270;6.756;2023-07-29T03:40:36;2.77;;;2.53;;
2476;SDS011;1249;51.270;6.756;2023-07-29T03:43:05;3.70;;;2.90;;
2476;SDS011;1249;51.270;6.756;2023-07-29T03:45:31;2.47;;;2.30;;
2476;SDS011;1249;51.270;6.756;2023-07-29T03:47:57;3.20;;;2.97;;
2476;SDS011;1249;51.270;6.756;2023-07-29T03:50:23;3.17;;;2.50;;
2476;SDS011;1249;51.270;6.756;2023-07-29T03:52:49;2.77;;;2.57;;
2476;SDS011;1249;51.270;6.756;2023-07-29T03:55:15;2.97;;;2.77;;
2476;SDS011;1249;51.270;6.756;2023-07-29T03:57:40;3.43;;;3.07;;
2476;SDS011;1249;51.270;6.756;2023-07-29T04:00:06;3.00;;;2.30;;
2476;SDS011;1249;51.270;6.756;2023-07-29T04:02:32;2.70;;;2.50;;
2476;SDS011;1249;51.270;6.756;2023-07-29T04:04:58;5.57;;;2.43;;
2476;SDS011;1249;51.270;6.756;2023-07-29T04:07:23;3.40;;;2.80;;
2476;SDS011;1249;51.270;6.756;2023-07-29T04:09:49;3.37;;;3.07;;
2476;SDS011;1249;51.270;6.756;2023-07-29T04:12:15;5.60;;;2.90;;
2476;SDS011;1249;51.270;6.756;2023-07-29T04:14:40;3.20;;;3.00;;
2476;SDS011;1249;51.270;6.756;2023-07-29T04:17:06;2.80;;;2.60;;
2476;SDS011;1249;51.270;6.756;2023-07-29T04:19:32;3.00;;;2.80;;
2476;SDS011;1249;51.270;6.756;2023-07-29T04:21:58;3.53;;;2.40;;
2476;SDS011;1249;51.270;6.756;2023-07-29T04:24:24;3.23;;;3.03;;
2476;SDS011;1249;51.270;6.756;2023-07-29T04:26:50;3.23;;;2.60;;
2476;SDS011;1249;51.270;6.756;2023-07-29T04:29:16;4.33;;;2.67;;
2476;SDS011;1249;51.270;6.756;2023-07-29T04:31:42;4.43;;;2.60;;
2476;SDS011;1249;51.270;6.756;2023-07-29T04:34:07;3.40;;;3.10;;
2476;SDS011;1249;51.270;6.756;2023-07-29T04:36:33;2.20;;;2.10;;
2476;SDS011;1249;51.270;6.756;2023-07-29T04:38:58;4.03;;;2.90;;
2476;SDS011;1249;51.270;6.756;2023-07-29T04:41:24;3.10;;;2.87;;
2476;SDS011;1249;51.270;6.756;2023-07-29T04:43:50;3.00;;;2.80;;
2476;SDS011;1249;51.270;6.756;2023-07-29T04:46:15;3.23;;;2.97;;
2476;SDS011;1249;51.270;6.756;2023-07-29T04:48:41;8.80;;;2.43;;
2476;SDS011;1249;51.270;6.756;2023-07-29T04:51:06;4.60;;;3.03;;
2476;SDS011;1249;51.270;6.756;2023-07-29T04:53:32;3.00;;;2.67;;
2476;SDS011;1249;51.270;6.756;2023-07-29T04:55:59;2.90;;;2.53;;
2476;SDS011;1249;51.270;6.756;2023-07-29T04:58:25;2.90;;;2.70;;
2476;SDS011;1249;51.270;6.756;2023-07-29T05:00:53;3.10;;;2.80;;
2476;SDS011;1249;51.270;6.756;2023-07-29T05:03:19;2.87;;;2.67;;
2476;SDS011;1249;51.270;6.756;2023-07-29T05:05:44;4.00;;;2.70;;
2476;SDS011;1249;51.270;6.756;2023-07-29T05:08:10;3.30;;;3.00;;
2476;SDS011;1249;51.270;6.756;2023-07-29T05:10:35;3.00;;;2.80;;
2476;SDS011;1249;51.270;6.756;2023-07-29T05:13:01;4.23;;;3.20;;
2476;SDS011;1249;51.270;6.756;2023-07-29T05:15:26;2.60;;;2.40;;
2476;SDS011;1249;51.270;6.756;2023-07-29T05:17:52;3.57;;;2.80;;
2476;SDS011;1249;51.270;6.756;2023-07-29T05:20:17;3.93;;;2.97;;
2476;SDS011;1249;51.270;6.756;2023-07-29T05:22:43;3.27;;;2.97;;
2476;SDS011;1249;51.270;6.756;2023-07-29T05:25:08;3.60;;;3.30;;
2476;SDS011;1249;51.270;6.756;2023-07-29T05:27:34;3.63;;;3.33;;
2476;SDS011;1249;51.270;6.756;2023-07-29T05:30:00;3.07;;;2.80;;
2476;SDS011;1249;51.270;6.756;2023-07-29T05:32:25;4.87;;;3.47;;
2476;SDS011;1249;51.270;6.756;2023-07-29T05:34:51;3.10;;;2.90;;
2476;SDS011;1249;51.270;6.756;2023-07-29T05:37:16;3.60;;;3.30;;
2476;SDS011;1249;51.270;6.756;2023-07-29T05:39:42;4.00;;;3.70;;
2476;SDS011;1249;51.270;6.756;2023-07-29T05:42:07;3.83;;;3.33;;
2476;SDS011;1249;51.270;6.756;2023-07-29T05:44:33;4.30;;;3.90;;
2476;SDS011;1249;51.270;6.756;2023-07-29T05:46:58;6.53;;;3.33;;
2476;SDS011;1249;51.270;6.756;2023-07-29T05:49:24;3.53;;;3.23;;
2476;SDS011;1249;51.270;6.756;2023-07-29T05:51:50;3.80;;;3.50;;
2476;SDS011;1249;51.270;6.756;2023-07-29T05:54:17;3.43;;;3.13;;
2476;SDS011;1249;51.270;6.756;2023-07-29T05:56:43;4.73;;;3.13;;
2476;SDS011;1249;51.270;6.756;2023-07-29T05:59:09;3.07;;;2.87;;
2476;SDS011;1249;51.270;6.756;2023-07-29T06:01:34;5.70;;;3.20;;
2476;SDS011;1249;51.270;6.756;2023-07-29T06:04:00;10.33;;;3.13;;
2476;SDS011;1249;51.270;6.756;2023-07-29T06:06:26;2.97;;;2.77;;
2476;SDS011;1249;51.270;6.756;2023-07-29T06:08:52;3.97;;;3.63;;
2476;SDS011;1249;51.270;6.756;2023-07-29T06:11:17;3.50;;;3.03;;
2476;SDS011;1249;51.270;6.756;2023-07-29T06:13:43;3.43;;;2.93;;
2476;SDS011;1249;51.270;6.756;2023-07-29T06:16:08;3.20;;;2.80;;
2476;SDS011;1249;51.270;6.756;2023-07-29T06:18:34;3.07;;;2.63;;
2476;SDS011;1249;51.270;6.756;2023-07-29T06:20:59;3.00;;;2.80;;
2476;SDS011;1249;51.270;6.756;2023-07-29T06:23:25;2.93;;;2.70;;
2476;SDS011;1249;51.270;6.756;2023-07-29T06:25:50;2.80;;;2.60;;
2476;SDS011;1249;51.270;6.756;2023-07-29T06:28:16;7.20;;;2.70;;
2476;SDS011;1249;51.270;6.756;2023-07-29T06:30:41;3.00;;;2.80;;
2476;SDS011;1249;51.270;6.756;2023-07-29T06:33:07;2.40;;;2.20;;
2476;SDS011;1249;51.270;6.756;2023-07-29T06:35:33;2.57;;;2.47;;
2476;SDS011;1249;51.270;6.756;2023-07-29T06:37:59;2.77;;;2.50;;
2476;SDS011;1249;51.270;6.756;2023-07-29T06:40:24;2.40;;;2.20;;
2476;SDS011;1249;51.270;6.756;2023-07-29T06:42:50;2.50;;;2.30;;
2476;SDS011;1249;51.270;6.756;2023-07-29T06:45:16;2.47;;;2.27;;
2476;SDS011;1249;51.270;6.756;2023-07-29T06:47:41;1.90;;;1.80;;
2476;SDS011;1249;51.270;6.756;2023-07-29T06:50:07;5.70;;;2.13;;
2476;SDS011;1249;51.270;6.756;2023-07-29T06:52:33;2.07;;;1.90;;
2476;SDS011;1249;51.270;6.756;2023-07-29T06:54:58;2.00;;;1.73;;
2476;SDS011;1249;51.270;6.756;2023-07-29T06:57:24;1.60;;;1.40;;
2476;SDS011;1249;51.270;6.756;2023-07-29T06:59:49;1.53;;;1.43;;
2476;SDS011;1249;51.270;6.756;2023-07-29T07:02:15;2.23;;;1.50;;
2476;SDS011;1249;51.270;6.756;2023-07-29T07:04:41;9.63;;;2.00;;
2476;SDS011;1249;51.270;6.756;2023-07-29T07:07:07;1.83;;;1.73;;
2476;SDS011;1249;51.270;6.756;2023-07-29T07:09:32;1.97;;;1.87;;
2476;SDS011;1249;51.270;6.756;2023-07-29T07:11:58;1.80;;;1.70;;
2476;SDS011;1249;51.270;6.756;2023-07-29T07:14:23;1.80;;;1.70;;
2476;SDS011;1249;51.270;6.756;2023-07-29T07:16:49;3.10;;;2.20;;
2476;SDS011;1249;51.270;6.756;2023-07-29T07:19:14;2.30;;;2.10;;
2476;SDS011;1249;51.270;6.756;2023-07-29T07:21:40;1.93;;;1.80;;
2476;SDS011;1249;51.270;6.756;2023-07-29T07:24:05;2.23;;;2.03;;
2476;SDS011;1249;51.270;6.756;2023-07-29T07:26:31;2.73;;;2.17;;
2476;SDS011;1249;51.270;6.756;2023-07-29T07:28:57;2.60;;;1.93;;
2476;SDS011;1249;51.270;6.756;2023-07-29T07:31:22;2.83;;;1.80;;
2476;SDS011;1249;51.270;6.756;2023-07-29T07:33:48;1.90;;;1.80;;
2476;SDS011;1249;51.270;6.756;2023-07-29T07:36:13;2.17;;;1.90;;
2476;SDS011;1249;51.270;6.756;2023-07-29T07:38:40;2.20;;;2.00;;
2476;SDS011;1249;51.270;6.756;2023-07-29T07:41:06;3.30;;;2.20;;
2476;SDS011;1249;51.270;6.756;2023-07-29T07:43:31;2.37;;;2.10;;
2476;SDS011;1249;51.270;6.756;2023-07-29T07:45:57;1.90;;;1.80;;
2476;SDS011;1249;51.270;6.756;2023-07-29T07:48:24;2.07;;;1.97;;
2476;SDS011;1249;51.270;6.756;2023-07-29T07:50:50;2.50;;;2.30;;
2476;SDS011;1249;51.270;6.756;2023-07-29T07:53:15;1.80;;;1.70;;
2476;SDS011;1249;51.270;6.756;2023-07-29T07:55:41;2.23;;;1.90;;
2476;SDS011;1249;51.270;6.756;2023-07-29T07:58:06;1.93;;;1.70;;
2476;SDS011;1249;51.270;6.756;2023-07-29T08:00:32;1.60;;;1.50;;
2476;SDS011;1249;51.270;6.756;2023-07-29T08:02:57;1.70;;;1.60;;
2476;SDS011;1249;51.270;6.756;2023-07-29T08:05:23;1.67;;;1.57;;
2476;SDS011;1249;51.270;6.756;2023-07-29T08:07:49;1.53;;;1.43;;
2476;SDS011;1249;51.270;6.756;2023-07-29T08:10:14;1.77;;;1.53;;
2476;SDS011;1249;51.270;6.756;2023-07-29T08:12:40;1.57;;;1.47;;
2476;SDS011;1249;51.270;6.756;2023-07-29T08:15:06;9.80;;;1.57;;
2476;SDS011;1249;51.270;6.756;2023-07-29T08:17:31;2.03;;;1.77;;
2476;SDS011;1249;51.270;6.756;2023-07-29T08:19:57;1.53;;;1.43;;
2476;SDS011;1249;51.270;6.756;2023-07-29T08:22:24;2.17;;;1.57;;
2476;SDS011;1249;51.270;6.756;2023-07-29T08:24:49;1.67;;;1.57;;
2476;SDS011;1249;51.270;6.756;2023-07-29T08:27:15;1.60;;;1.50;;
2476;SDS011;1249;51.270;6.756;2023-07-29T08:29:40;1.53;;;1.43;;
2476;SDS011;1249;51.270;6.756;2023-07-29T08:32:06;2.60;;;1.50;;
2476;SDS011;1249;51.270;6.756;2023-07-29T08:34:32;1.80;;;1.60;;
2476;SDS011;1249;51.270;6.756;2023-07-29T08:36:57;1.70;;;1.60;;
2476;SDS011;1249;51.270;6.756;2023-07-29T08:39:23;2.50;;;2.30;;
2476;SDS011;1249;51.270;6.756;2023-07-29T08:41:50;2.37;;;1.50;;
2476;SDS011;1249;51.270;6.756;2023-07-29T08:44:25;1.70;;;1.60;;
2476;SDS011;1249;51.270;6.756;2023-07-29T08:46:54;2.13;;;1.93;;
2476;SDS011;1249;51.270;6.756;2023-07-29T08:49:22;2.03;;;1.83;;
2476;SDS011;1249;51.270;6.756;2023-07-29T08:51:49;2.53;;;2.10;;
2476;SDS011;1249;51.270;6.756;2023-07-29T08:54:16;2.03;;;1.93;;
2476;SDS011;1249;51.270;6.756;2023-07-29T08:56:42;2.03;;;1.73;;
2476;SDS011;1249;51.270;6.756;2023-07-29T08:59:08;1.40;;;1.30;;
2476;SDS011;1249;51.270;6.756;2023-07-29T09:01:36;1.50;;;1.30;;
2476;SDS011;1249;51.270;6.756;2023-07-29T09:04:04;1.50;;;1.40;;
2476;SDS011;1249;51.270;6.756;2023-07-29T09:06:30;3.20;;;1.60;;
2476;SDS011;1249;51.270;6.756;2023-07-29T09:08:57;1.67;;;1.57;;
2476;SDS011;1249;51.270;6.756;2023-07-29T09:11:24;2.00;;;1.90;;
2476;SDS011;1249;51.270;6.756;2023-07-29T09:13:50;1.30;;;1.20;;
2476;SDS011;1249;51.270;6.756;2023-07-29T09:16:15;1.50;;;1.40;;
2476;SDS011;1249;51.270;6.756;2023-07-29T09:18:41;1.33;;;1.23;;
2476;SDS011;1249;51.270;6.756;2023-07-29T09:21:07;2.80;;;2.60;;
2476;SDS011;1249;51.270;6.756;2023-07-29T09:23:40;1.83;;;1.50;;
2476;SDS011;1249;51.270;6.756;2023-07-29T09:26:06;1.43;;;1.33;;
2476;SDS011;1249;51.270;6.756;2023-07-29T09:28:38;2.23;;;1.40;;
2476;SDS011;1249;51.270;6.756;2023-07-29T09:31:05;1.47;;;1.37;;
2476;SDS011;1249;51.270;6.756;2023-07-29T09:33:35;1.60;;;1.50;;
2476;SDS011;1249;51.270;6.756;2023-07-29T09:36:02;2.00;;;1.60;;
2476;SDS011;1249;51.270;6.756;2023-07-29T09:38:37;1.67;;;1.50;;
2476;SDS011;1249;51.270;6.756;2023-07-29T09:41:03;1.70;;;1.43;;
2476;SDS011;1249;51.270;6.756;2023-07-29T09:43:29;1.70;;;1.60;;
2476;SDS011;1249;51.270;6.756;2023-07-29T09:45:59;1.57;;;1.47;;
2476;SDS011;1249;51.270;6.756;2023-07-29T09:48:26;1.60;;;1.50;;
2476;SDS011;1249;51.270;6.756;2023-07-29T09:50:53;1.90;;;1.70;;
2476;SDS011;1249;51.270;6.756;2023-07-29T09:53:19;1.20;;;1.10;;
2476;SDS011;1249;51.270;6.756;2023-07-29T09:55:46;2.70;;;1.93;;
2476;SDS011;1249;51.270;6.756;2023-07-29T09:58:27;1.50;;;1.40;;
2476;SDS011;1249;51.270;6.756;2023-07-29T10:00:53;1.73;;;1.63;;
2476;SDS011;1249;51.270;6.756;2023-07-29T10:03:19;2.47;;;1.80;;
2476;SDS011;1249;51.270;6.756;2023-07-29T10:05:46;1.60;;;1.50;;
2476;SDS011;1249;51.270;6.756;2023-07-29T10:08:12;1.40;;;1.30;;
2476;SDS011;1249;51.270;6.756;2023-07-29T10:10:38;1.73;;;1.63;;
2476;SDS011;1249;51.270;6.756;2023-07-29T10:13:06;2.27;;;1.70;;
2476;SDS011;1249;51.270;6.756;2023-07-29T10:15:32;1.90;;;1.70;;
2476;SDS011;1249;51.270;6.756;2023-07-29T10:17:58;2.20;;;2.00;;
2476;SDS011;1249;51.270;6.756;2023-07-29T10:20:25;2.30;;;1.80;;
2476;SDS011;1249;51.270;6.756;2023-07-29T10:22:51;2.50;;;2.17;;
2476;SDS011;1249;51.270;6.756;2023-07-29T10:25:22;1.90;;;1.80;;
2476;SDS011;1249;51.270;6.756;2023-07-29T10:27:49;1.93;;;1.60;;
2476;SDS011;1249;51.270;6.756;2023-07-29T10:30:20;1.90;;;1.80;;
2476;SDS011;1249;51.270;6.756;2023-07-29T10:32:47;2.10;;;1.90;;
2476;SDS011;1249;51.270;6.756;2023-07-29T10:35:14;2.20;;;2.10;;
2476;SDS011;1249;51.270;6.756;2023-07-29T10:37:41;1.70;;;1.60;;
2476;SDS011;1249;51.270;6.756;2023-07-29T10:40:07;2.93;;;2.20;;
2476;SDS011;1249;51.270;6.756;2023-07-29T10:42:35;1.93;;;1.83;;
2476;SDS011;1249;51.270;6.756;2023-07-29T10:45:16;2.07;;;1.60;;
2476;SDS011;1249;51.270;6.756;2023-07-29T10:47:43;2.80;;;1.90;;
2476;SDS011;1249;51.270;6.756;2023-07-29T10:50:16;1.83;;;1.73;;
2476;SDS011;1249;51.270;6.756;2023-07-29T10:52:44;1.80;;;1.70;;
2476;SDS011;1249;51.270;6.756;2023-07-29T10:58:15;2.03;;;1.83;;
2476;SDS011;1249;51.270;6.756;2023-07-29T11:00:44;1.83;;;1.73;;
2476;SDS011;1249;51.270;6.756;2023-07-29T11:03:11;1.67;;;1.50;;
2476;SDS011;1249;51.270;6.756;2023-07-29T11:05:42;1.80;;;1.70;;
2476;SDS011;1249;51.270;6.756;2023-07-29T11:08:19;1.67;;;1.57;;
2476;SDS011;1249;51.270;6.756;2023-07-29T11:10:57;3.27;;;2.20;;
2476;SDS011;1249;51.270;6.756;2023-07-29T11:13:26;1.83;;;1.70;;
2476;SDS011;1249;51.270;6.756;2023-07-29T11:15:53;1.90;;;1.70;;
2476;SDS011;1249;51.270;6.756;2023-07-29T11:18:20;2.80;;;1.50;;
2476;SDS011;1249;51.270;6.756;2023-07-29T11:20:46;1.70;;;1.60;;
2476;SDS011;1249;51.270;6.756;2023-07-29T11:23:13;2.10;;;1.87;;
2476;SDS011;1249;51.270;6.756;2023-07-29T11:25:38;2.53;;;1.77;;
2476;SDS011;1249;51.270;6.756;2023-07-29T11:28:04;2.20;;;2.00;;
2476;SDS011;1249;51.270;6.756;2023-07-29T11:30:30;1.67;;;1.57;;
2476;SDS011;1249;51.270;6.756;2023-07-29T11:32:56;1.97;;;1.87;;
2476;SDS011;1249;51.270;6.756;2023-07-29T11:35:23;1.77;;;1.60;;
2476;SDS011;1249;51.270;6.756;2023-07-29T11:37:50;2.17;;;1.50;;
2476;SDS011;1249;51.270;6.756;2023-07-29T11:40:17;1.70;;;1.60;;
2476;SDS011;1249;51.270;6.756;2023-07-29T11:42:45;1.73;;;1.63;;
2476;SDS011;1249;51.270;6.756;2023-07-29T11:45:11;3.53;;;1.80;;
2476;SDS011;1249;51.270;6.756;2023-07-29T11:47:38;3.43;;;1.73;;
2476;SDS011;1249;51.270;6.756;2023-07-29T11:50:04;2.43;;;1.60;;
2476;SDS011;1249;51.270;6.756;2023-07-29T11:52:32;1.97;;;1.87;;
2476;SDS011;1249;51.270;6.756;2023-07-29T11:54:58;2.47;;;2.10;;
2476;SDS011;1249;51.270;6.756;2023-07-29T11:57:26;2.07;;;1.80;;
2476;SDS011;1249;51.270;6.756;2023-07-29T11:59:52;2.00;;;1.80;;
2476;SDS011;1249;51.270;6.756;2023-07-29T12:02:19;2.33;;;2.13;;
2476;SDS011;1249;51.270;6.756;2023-07-29T12:04:46;2.13;;;1.53;;
2476;SDS011;1249;51.270;6.756;2023-07-29T12:07:12;2.30;;;1.87;;
2476;SDS011;1249;51.270;6.756;2023-07-29T12:09:39;1.60;;;1.50;;
2476;SDS011;1249;51.270;6.756;2023-07-29T12:12:05;2.47;;;1.60;;
2476;SDS011;1249;51.270;6.756;2023-07-29T12:14:32;6.83;;;1.73;;
2476;SDS011;1249;51.270;6.756;2023-07-29T12:17:01;2.20;;;2.00;;
2476;SDS011;1249;51.270;6.756;2023-07-29T12:19:35;2.40;;;2.03;;
2476;SDS011;1249;51.270;6.756;2023-07-29T12:22:02;2.13;;;1.60;;
2476;SDS011;1249;51.270;6.756;2023-07-29T12:24:32;2.40;;;1.90;;
2476;SDS011;1249;51.270;6.756;2023-07-29T12:27:00;2.53;;;2.10;;
2476;SDS011;1249;51.270;6.756;2023-07-29T12:29:26;2.00;;;1.80;;
2476;SDS011;1249;51.270;6.756;2023-07-29T12:32:02;2.27;;;1.80;;
2476;SDS011;1249;51.270;6.756;2023-07-29T12:34:29;1.70;;;1.60;;
2476;SDS011;1249;51.270;6.756;2023-07-29T12:36:56;2.10;;;1.90;;
2476;SDS011;1249;51.270;6.756;2023-07-29T12:39:29;2.00;;;1.80;;
2476;SDS011;1249;51.270;6.756;2023-07-29T12:41:57;3.23;;;1.90;;
2476;SDS011;1249;51.270;6.756;2023-07-29T12:44:25;1.93;;;1.73;;
2476;SDS011;1249;51.270;6.756;2023-07-29T12:46:52;2.27;;;1.70;;
2476;SDS011;1249;51.270;6.756;2023-07-29T12:49:18;2.00;;;1.63;;
2476;SDS011;1249;51.270;6.756;2023-07-29T12:51:43;1.83;;;1.70;;
2476;SDS011;1249;51.270;6.756;2023-07-29T12:54:09;2.07;;;1.77;;
2476;SDS011;1249;51.270;6.756;2023-07-29T12:56:35;1.70;;;1.60;;
2476;SDS011;1249;51.270;6.756;2023-07-29T12:59:00;2.53;;;2.33;;
2476;SDS011;1249;51.270;6.756;2023-07-29T13:01:27;2.03;;;1.93;;
2476;SDS011;1249;51.270;6.756;2023-07-29T13:03:53;2.37;;;1.90;;
2476;SDS011;1249;51.270;6.756;2023-07-29T13:06:19;2.10;;;1.90;;
2476;SDS011;1249;51.270;6.756;2023-07-29T13:08:45;3.80;;;1.97;;
2476;SDS011;1249;51.270;6.756;2023-07-29T13:11:11;4.30;;;2.20;;
2476;SDS011;1249;51.270;6.756;2023-07-29T13:13:37;2.63;;;1.90;;
2476;SDS011;1249;51.270;6.756;2023-07-29T13:16:03;1.63;;;1.53;;
2476;SDS011;1249;51.270;6.756;2023-07-29T13:18:29;2.60;;;2.10;;
2476;SDS011;1249;51.270;6.756;2023-07-29T13:20:54;2.50;;;2.30;;
2476;SDS011;1249;51.270;6.756;2023-07-29T13:23:20;2.73;;;2.00;;
2476;SDS011;1249;51.270;6.756;2023-07-29T13:25:46;2.23;;;1.90;;
2476;SDS011;1249;51.270;6.756;2023-07-29T13:28:12;2.13;;;1.93;;
2476;SDS011;1249;51.270;6.756;2023-07-29T13:30:38;2.73;;;2.23;;
2476;SDS011;1249;51.270;6.756;2023-07-29T13:33:04;2.23;;;2.03;;
2476;SDS011;1249;51.270;6.756;2023-07-29T13:35:31;2.03;;;1.83;;
2476;SDS011;1249;51.270;6.756;2023-07-29T13:37:56;2.57;;;2.17;;
2476;SDS011;1249;51.270;6.756;2023-07-29T13:40:22;1.93;;;1.83;;
2476;SDS011;1249;51.270;6.756;2023-07-29T13:42:47;2.90;;;2.70;;
2476;SDS011;1249;51.270;6.756;2023-07-29T13:45:13;3.60;;;2.10;;
2476;SDS011;1249;51.270;6.756;2023-07-29T13:47:38;3.10;;;2.13;;
2476;SDS011;1249;51.270;6.756;2023-07-29T13:50:04;2.70;;;2.00;;
2476;SDS011;1249;51.270;6.756;2023-07-29T13:52:32;2.30;;;2.10;;
2476;SDS011;1249;51.270;6.756;2023-07-29T13:54:58;2.23;;;2.07;;
2476;SDS011;1249;51.270;6.756;2023-07-29T13:57:23;2.30;;;2.10;;
2476;SDS011;1249;51.270;6.756;2023-07-29T13:59:49;2.33;;;2.20;;
2476;SDS011;1249;51.270;6.756;2023-07-29T14:02:14;2.03;;;1.83;;
2476;SDS011;1249;51.270;6.756;2023-07-29T14:04:40;3.50;;;2.40;;
2476;SDS011;1249;51.270;6.756;2023-07-29T14:07:05;2.57;;;2.20;;
2476;SDS011;1249;51.270;6.756;2023-07-29T14:09:31;2.10;;;2.00;;
2476;SDS011;1249;51.270;6.756;2023-07-29T14:11:56;2.07;;;1.83;;
2476;SDS011;1249;51.270;6.756;2023-07-29T14:14:22;2.80;;;2.60;;
2476;SDS011;1249;51.270;6.756;2023-07-29T14:16:47;2.93;;;2.00;;
2476;SDS011;1249;51.270;6.756;2023-07-29T14:19:14;2.77;;;2.50;;
2476;SDS011;1249;51.270;6.756;2023-07-29T14:21:39;2.40;;;2.20;;
2476;SDS011;1249;51.270;6.756;2023-07-29T14:24:05;2.20;;;2.00;;
2476;SDS011;1249;51.270;6.756;2023-07-29T14:26:31;2.50;;;2.30;;
2476;SDS011;1249;51.270;6.756;2023-07-29T14:28:56;2.73;;;2.30;;
2476;SDS011;1249;51.270;6.756;2023-07-29T14:31:22;5.13;;;2.70;;
2476;SDS011;1249;51.270;6.756;2023-07-29T14:33:47;2.57;;;2.37;;
2476;SDS011;1249;51.270;6.756;2023-07-29T14:36:14;2.13;;;2.03;;
2476;SDS011;1249;51.270;6.756;2023-07-29T14:38:40;2.40;;;2.20;;
2476;SDS011;1249;51.270;6.756;2023-07-29T14:41:06;2.30;;;2.10;;
2476;SDS011;1249;51.270;6.756;2023-07-29T14:43:31;3.00;;;2.43;;
2476;SDS011;1249;51.270;6.756;2023-07-29T14:45:57;2.07;;;1.80;;
2476;SDS011;1249;51.270;6.756;2023-07-29T14:48:23;2.27;;;2.03;;
2476;SDS011;1249;51.270;6.756;2023-07-29T14:50:48;2.40;;;2.20;;
2476;SDS011;1249;51.270;6.756;2023-07-29T14:53:14;2.30;;;2.10;;
2476;SDS011;1249;51.270;6.756;2023-07-29T14:55:40;1.90;;;1.70;;
2476;SDS011;1249;51.270;6.756;2023-07-29T14:58:05;2.13;;;1.90;;
2476;SDS011;1249;51.270;6.756;2023-07-29T15:00:31;1.83;;;1.73;;
2476;SDS011;1249;51.270;6.756;2023-07-29T15:02:56;2.23;;;2.03;;
2476;SDS011;1249;51.270;6.756;2023-07-29T15:05:22;2.07;;;1.87;;
2476;SDS011;1249;51.270;6.756;2023-07-29T15:07:47;2.23;;;2.03;;
2476;SDS011;1249;51.270;6.756;2023-07-29T15:10:14;2.27;;;2.17;;
2476;SDS011;1249;51.270;6.756;2023-07-29T15:12:43;2.00;;;1.80;;
2476;SDS011;1249;51.270;6.756;2023-07-29T15:15:10;2.30;;;2.10;;
2476;SDS011;1249;51.270;6.756;2023-07-29T15:17:37;2.20;;;2.00;;